Terminal Aerodrome Forecast
Issued by NWS

Home | Current Version | Previous Version | Graphics & Text | Print | Product List | Glossary On
Versions: 1 2 3 4 5 6 7 8 9 10 11 12 13 14
000
FTUS41 KCLE 181700
TAFFDY
TAF
KFDY 181724Z 1818/1918 26006KT P6SM SCT040 SCT080
     FM182200 32008KT P6SM SCT040 BKN100
     FM190200 03005KT P6SM SCT040
     FM190800 05009KT P6SM SCT025=

USA.gov is the U.S. government's official web portal to all federal, state and local government web resources and services.